Time;durP1;ratioP1;P1;durP2;ratioP2;P2;SDS_P1;SDS_P2;PMS_P1;PMS_P2;Temp;Humidity;BMP_temperature;BMP_pressure;BME280_temperature;BME280_humidity;BME280_pressure;Samples;Min_cycle;Max_cycle;Signal;HPM_P1;HPM_P2
2020/02/26 00:01:08;;;;;;;3.2;1.7;;;;;;;6.66;76.71094;941.8125;;;;
2020/02/26 00:03:33;;;;;;;3.1;1.6;;;;;;;6.7;77.16211;941.7827;;;;
2020/02/26 00:05:58;;;;;;;4.2;1.5;;;;;;;6.72;77.72461;941.7302;;;;
2020/02/26 00:08:23;;;;;;;3.9;1.7;;;;;;;6.74;77.7168;941.6212;;;;
2020/02/26 00:10:48;;;;;;;2.4;1.5;;;;;;;6.69;78.14355;941.6475;;;;
2020/02/26 00:13:13;;;;;;;2.8;1.6;;;;;;;6.65;78.30664;941.6458;;;;
2020/02/26 00:15:38;;;;;;;4;1.6;;;;;;;6.58;78.57813;941.7054;;;;
2020/02/26 00:18:04;;;;;;;5.5;1.7;;;;;;;6.61;78.19531;941.7525;;;;
2020/02/26 00:20:29;;;;;;;3.4;1.6;;;;;;;6.6;78.49023;941.7709;;;;
2020/02/26 00:22:54;;;;;;;3.3;1.7;;;;;;;6.57;78.54199;941.8176;;;;
2020/02/26 00:25:20;;;;;;;2.6;1.5;;;;;;;6.55;78.9707;941.7878;;;;
2020/02/26 00:27:45;;;;;;;2.1;1.4;;;;;;;6.45;79.68164;941.8066;;;;
2020/02/26 00:30:10;;;;;;;2.9;1.4;;;;;;;6.49;78.94727;941.7686;;;;
2020/02/26 00:32:35;;;;;;;2.7;1.4;;;;;;;6.42;79.64258;941.7545;;;;
2020/02/26 00:35:00;;;;;;;2.4;1.3;;;;;;;6.47;79.4707;941.6886;;;;
2020/02/26 00:37:26;;;;;;;2.2;1.3;;;;;;;6.36;79.4375;941.6224;;;;
2020/02/26 00:39:51;;;;;;;2.6;1.4;;;;;;;6.38;79.85254;941.6008;;;;
2020/02/26 00:42:16;;;;;;;1.8;1.3;;;;;;;6.36;79.38184;941.4768;;;;
2020/02/26 00:44:42;;;;;;;3.6;1.4;;;;;;;6.35;79.39063;941.4639;;;;
2020/02/26 00:47:07;;;;;;;3.1;1.4;;;;;;;6.25;80;941.3898;;;;
2020/02/26 00:49:32;;;;;;;3.5;1.5;;;;;;;6.24;80.57813;941.4623;;;;
2020/02/26 00:51:58;;;;;;;2;1.5;;;;;;;6.25;80.29492;941.5136;;;;
2020/02/26 00:54:22;;;;;;;2.1;1.2;;;;;;;6.14;80.83301;941.3535;;;;
2020/02/26 00:56:48;;;;;;;2.4;1.2;;;;;;;6.31;80.75098;941.3975;;;;
2020/02/26 00:59:13;;;;;;;2.6;1.3;;;;;;;6.13;81.15039;941.3978;;;;
2020/02/26 01:01:47;;;;;;;1.8;1.1;;;;;;;6.09;81.23242;941.3653;;;;
2020/02/26 01:04:09;;;;;;;2.3;0.9;;;;;;;6.14;81.30957;941.2808;;;;
2020/02/26 01:09:06;;;;;;;3.4;1.2;;;;;;;6.08;82.08496;941.1033;;;;
2020/02/26 01:14:06;;;;;;;2;1.2;;;;;;;5.96;81.98145;941.0242;;;;
2020/02/26 01:16:23;;;;;;;1.9;1.1;;;;;;;5.98;81.90527;940.9313;;;;
2020/02/26 01:18:48;;;;;;;1.3;1;;;;;;;5.93;81.88672;940.9294;;;;
2020/02/26 01:21:13;;;;;;;2.7;1.2;;;;;;;5.92;81.75879;940.7924;;;;
2020/02/26 01:23:38;;;;;;;1.7;1;;;;;;;5.96;81.94727;940.8214;;;;
2020/02/26 01:26:03;;;;;;;1.8;1.2;;;;;;;5.93;82.43359;940.7516;;;;
2020/02/26 01:28:28;;;;;;;2.1;1.1;;;;;;;5.88;81.90918;940.7283;;;;
2020/02/26 01:30:54;;;;;;;2.2;1;;;;;;;5.92;81.70117;940.7061;;;;
2020/02/26 01:33:19;;;;;;;2.4;1.2;;;;;;;5.95;81.97949;940.6492;;;;
2020/02/26 01:35:44;;;;;;;3.1;1.2;;;;;;;6.01;81.00098;940.6145;;;;
2020/02/26 01:38:09;;;;;;;1.3;0.9;;;;;;;5.95;81.3418;940.5058;;;;
2020/02/26 01:42:03;;;;;;;2.7;1;;;;;;;5.99;81.37207;940.5726;;;;
2020/02/26 01:44:28;;;;;;;2.2;1.1;;;;;;;5.97;81.24512;940.5311;;;;
2020/02/26 01:46:53;;;;;;;4;1.1;;;;;;;6.05;81.39648;940.5784;;;;
2020/02/26 01:49:18;;;;;;;2;0.9;;;;;;;6;81.0332;940.5846;;;;
2020/02/26 01:51:43;;;;;;;2.2;1;;;;;;;6.04;80.70996;940.5944;;;;
2020/02/26 01:54:08;;;;;;;1.1;0.9;;;;;;;6.06;80.03223;940.6164;;;;
2020/02/26 01:56:34;;;;;;;2.7;1.1;;;;;;;6.11;79.49316;940.5894;;;;
2020/02/26 01:58:59;;;;;;;2;0.9;;;;;;;6.11;78.8457;940.6459;;;;
2020/02/26 02:01:24;;;;;;;1.4;0.9;;;;;;;6.15;79.43359;940.6323;;;;
2020/02/26 02:03:49;;;;;;;1.8;0.9;;;;;;;6.21;78.89648;940.5953;;;;
2020/02/26 02:06:14;;;;;;;2.4;0.9;;;;;;;6.24;79.09668;940.5906;;;;
2020/02/26 02:08:39;;;;;;;2.4;1;;;;;;;6.12;80.16699;940.6694;;;;
2020/02/26 02:11:04;;;;;;;2.2;1.1;;;;;;;6.13;79.29297;940.7173;;;;
2020/02/26 02:15:01;;;;;;;1.7;0.7;;;;;;;6.21;79.19238;940.8031;;;;
2020/02/26 02:15:54;;;;;;;1.7;0.8;;;;;;;6.25;79.71387;940.7992;;;;
2020/02/26 02:18:19;;;;;;;2;0.9;;;;;;;6.23;79.49414;940.9821;;;;
2020/02/26 02:20:44;;;;;;;1;0.7;;;;;;;6.28;79.29688;940.8899;;;;
2020/02/26 02:23:10;;;;;;;1.3;0.8;;;;;;;6.21;79.86523;940.9213;;;;
2020/02/26 02:25:35;;;;;;;1.9;0.9;;;;;;;6.21;80.09277;940.7328;;;;
2020/02/26 02:28:00;;;;;;;1.5;0.8;;;;;;;6.12;78.91602;940.5447;;;;
2020/02/26 02:30:25;;;;;;;2.4;0.8;;;;;;;6.14;79.76172;940.5175;;;;
2020/02/26 02:32:50;;;;;;;1.4;0.6;;;;;;;5.94;78.31348;940.5867;;;;
2020/02/26 02:35:15;;;;;;;1.4;0.6;;;;;;;5.9;78.00977;940.5862;;;;
2020/02/26 02:37:40;;;;;;;1;0.4;;;;;;;5.82;76.81055;940.4863;;;;
2020/02/26 02:40:05;;;;;;;0.9;0.4;;;;;;;5.82;75.72949;940.4484;;;;
2020/02/26 02:42:30;;;;;;;1.1;0.4;;;;;;;5.68;74.69238;940.4267;;;;
2020/02/26 02:44:55;;;;;;;2;0.3;;;;;;;5.76;75.18359;940.3825;;;;
2020/02/26 02:47:20;;;;;;;0.8;0.4;;;;;;;5.61;74.99902;940.4543;;;;
2020/02/26 02:49:45;;;;;;;0.5;0.2;;;;;;;5.45;75.15234;940.5623;;;;
2020/02/26 02:52:11;;;;;;;1;0.4;;;;;;;5.38;75.84473;940.5503;;;;
2020/02/26 02:54:36;;;;;;;0.2;0.2;;;;;;;5.32;75.4834;940.7251;;;;
2020/02/26 02:57:01;;;;;;;1;0.2;;;;;;;5.23;76.07813;940.5984;;;;
2020/02/26 02:59:26;;;;;;;0.5;0.3;;;;;;;5.17;76.43164;940.4986;;;;
2020/02/26 03:01:51;;;;;;;0.3;0.2;;;;;;;5.17;76.375;940.5172;;;;
2020/02/26 03:04:16;;;;;;;0.4;0.2;;;;;;;5.13;76.73242;940.4144;;;;
2020/02/26 03:06:41;;;;;;;0.5;0.3;;;;;;;5.13;76.44824;940.5226;;;;
2020/02/26 03:09:24;;;;;;;0.3;0.3;;;;;;;5.13;76.78906;940.7446;;;;
2020/02/26 03:11:49;;;;;;;0.5;0.3;;;;;;;4.9;80.31348;940.7658;;;;
2020/02/26 03:14:14;;;;;;;0.4;0.3;;;;;;;4.44;87.16016;941.1142;;;;
2020/02/26 03:16:39;;;;;;;1.4;0.3;;;;;;;4.33;89.96289;941.4191;;;;
2020/02/26 03:19:05;;;;;;;0.9;0.4;;;;;;;3.83;97.04004;941.8087;;;;
2020/02/26 03:21:30;;;;;;;1;0.3;;;;;;;3.25;99.54395;941.9704;;;;
2020/02/26 03:23:55;;;;;;;0.4;0.3;;;;;;;2.98;99.54883;941.535;;;;
2020/02/26 03:26:20;;;;;;;0.6;0.3;;;;;;;2.83;99.94238;941.2114;;;;
2020/02/26 03:28:45;;;;;;;0.9;0.3;;;;;;;3.01;100;941.1631;;;;
2020/02/26 03:31:10;;;;;;;0.7;0.2;;;;;;;3.1;99.31543;941.2266;;;;
2020/02/26 03:33:35;;;;;;;0.7;0.3;;;;;;;2.97;97.75977;941.2285;;;;
2020/02/26 03:36:00;;;;;;;0.4;0.2;;;;;;;3.11;99.21582;941.182;;;;
2020/02/26 03:38:26;;;;;;;0.4;0.2;;;;;;;2.97;99.79492;941.1827;;;;
2020/02/26 03:40:51;;;;;;;0.2;0.2;;;;;;;3.06;99.51074;941.2711;;;;
2020/02/26 03:43:16;;;;;;;0.5;0.3;;;;;;;2.88;98.18945;941.3621;;;;
2020/02/26 03:45:41;;;;;;;0.6;0.3;;;;;;;2.82;97.23926;941.402;;;;
2020/02/26 03:48:06;;;;;;;0.5;0.2;;;;;;;2.73;97.53711;941.4035;;;;
2020/02/26 03:50:31;;;;;;;0.2;0.2;;;;;;;2.65;99.32422;941.5297;;;;
2020/02/26 03:52:56;;;;;;;0.6;0.3;;;;;;;2.7;98.8623;941.5444;;;;
2020/02/26 03:55:21;;;;;;;0.5;0.2;;;;;;;2.79;99.25586;941.5799;;;;
2020/02/26 03:57:46;;;;;;;0.7;0.4;;;;;;;2.51;100;941.5778;;;;
2020/02/26 04:02:29;;;;;;;0.5;0.5;;;;;;;2.41;99.75293;941.791;;;;
2020/02/26 04:04:54;;;;;;;1.1;0.4;;;;;;;2.45;99.16504;941.8881;;;;
2020/02/26 04:07:19;;;;;;;0.6;0.4;;;;;;;2.52;99.76855;941.9613;;;;
2020/02/26 04:09:44;;;;;;;0.6;0.3;;;;;;;2.57;99.46289;941.9171;;;;
2020/02/26 04:12:09;;;;;;;1.9;0.4;;;;;;;2.45;98.43262;942.0009;;;;
2020/02/26 04:14:34;;;;;;;1.6;0.4;;;;;;;2.56;99.16699;941.8808;;;;
2020/02/26 04:16:59;;;;;;;1.2;0.3;;;;;;;2.65;98.89258;941.9026;;;;
2020/02/26 04:19:24;;;;;;;0.4;0.3;;;;;;;2.48;97.87207;941.7827;;;;
2020/02/26 04:21:49;;;;;;;0.3;0.3;;;;;;;2.67;98.27734;941.9233;;;;
2020/02/26 04:24:14;;;;;;;0.9;0.4;;;;;;;2.56;98.07129;941.7844;;;;
2020/02/26 04:26:39;;;;;;;0.8;0.4;;;;;;;2.59;98.10059;941.7569;;;;
2020/02/26 04:29:05;;;;;;;1.2;0.3;;;;;;;2.66;98.13965;941.7211;;;;
2020/02/26 04:31:30;;;;;;;0.5;0.3;;;;;;;2.55;96.74805;941.8694;;;;
2020/02/26 04:33:55;;;;;;;0.6;0.3;;;;;;;2.57;96.33398;941.8649;;;;
2020/02/26 04:36:20;;;;;;;1.4;0.5;;;;;;;2.55;96.48828;941.9386;;;;
2020/02/26 04:38:45;;;;;;;1.1;0.4;;;;;;;2.68;96.62988;941.9395;;;;
2020/02/26 04:41:10;;;;;;;1;0.4;;;;;;;2.68;94.62012;941.8937;;;;
2020/02/26 04:43:36;;;;;;;1.7;0.5;;;;;;;2.73;93.12988;941.9053;;;;
2020/02/26 04:46:01;;;;;;;0.8;0.4;;;;;;;2.71;93.34961;941.8645;;;;
2020/02/26 04:48:27;;;;;;;1.1;0.5;;;;;;;2.56;93.50781;941.9411;;;;
2020/02/26 04:50:52;;;;;;;1.3;0.4;;;;;;;2.68;92.49414;941.8832;;;;
2020/02/26 04:53:17;;;;;;;1.8;0.8;;;;;;;2.6;93.12012;941.908;;;;
2020/02/26 04:55:42;;;;;;;2.5;0.7;;;;;;;2.6;92.54688;942.0488;;;;
2020/02/26 04:58:07;;;;;;;1;0.7;;;;;;;2.64;93.7627;942.053;;;;
2020/02/26 05:00:32;;;;;;;1.6;0.7;;;;;;;2.6;91.93652;941.9731;;;;
2020/02/26 05:02:57;;;;;;;1.4;0.6;;;;;;;2.65;90.65625;941.9654;;;;
2020/02/26 05:05:22;;;;;;;1.2;0.6;;;;;;;2.49;90.30762;941.918;;;;
2020/02/26 05:07:47;;;;;;;1.7;0.7;;;;;;;2.48;90.80273;942.0527;;;;
2020/02/26 05:10:12;;;;;;;1.4;0.6;;;;;;;2.49;90.64648;942.1022;;;;
2020/02/26 05:12:37;;;;;;;1.9;0.7;;;;;;;2.5;91.88086;942.0765;;;;
2020/02/26 05:15:03;;;;;;;1.6;0.6;;;;;;;2.57;91.28613;942.1795;;;;
2020/02/26 05:17:28;;;;;;;1.5;0.6;;;;;;;2.45;90.79688;942.3414;;;;
2020/02/26 05:19:53;;;;;;;1.4;0.6;;;;;;;2.39;88.73926;942.4174;;;;
2020/02/26 05:22:18;;;;;;;1.7;0.6;;;;;;;2.45;90.76465;942.4414;;;;
2020/02/26 05:24:43;;;;;;;2.4;0.9;;;;;;;2.44;89.30176;942.4007;;;;
2020/02/26 05:27:08;;;;;;;1.9;0.6;;;;;;;2.4;89.6123;942.449;;;;
2020/02/26 05:29:33;;;;;;;1.2;0.5;;;;;;;2.39;90.12793;942.5281;;;;
2020/02/26 05:31:58;;;;;;;3.2;0.9;;;;;;;2.36;90.66406;942.3872;;;;
2020/02/26 05:34:23;;;;;;;1.8;0.5;;;;;;;2.38;91.51563;942.3335;;;;
2020/02/26 05:36:48;;;;;;;2.1;0.8;;;;;;;2.33;91.59375;942.3372;;;;
2020/02/26 05:39:13;;;;;;;2;0.7;;;;;;;2.31;90.28027;942.1899;;;;
2020/02/26 05:41:39;;;;;;;2.2;0.6;;;;;;;2.34;92.24121;942.3088;;;;
2020/02/26 05:44:04;;;;;;;2.3;0.7;;;;;;;2.36;91.64648;942.3491;;;;
2020/02/26 05:46:29;;;;;;;2.3;0.6;;;;;;;2.33;92.03613;942.43;;;;
2020/02/26 05:48:54;;;;;;;2;0.7;;;;;;;2.42;91.16113;942.4588;;;;
2020/02/26 05:51:19;;;;;;;1.9;0.7;;;;;;;2.42;90.99414;942.5392;;;;
2020/02/26 05:53:44;;;;;;;2.7;0.7;;;;;;;2.53;90.07813;942.5296;;;;
2020/02/26 05:56:09;;;;;;;1.7;0.6;;;;;;;2.44;90.39941;942.5937;;;;
2020/02/26 05:58:34;;;;;;;2.2;0.7;;;;;;;2.39;91.77832;942.5872;;;;
2020/02/26 06:01:19;;;;;;;2.1;0.6;;;;;;;2.42;90.98242;942.5709;;;;
2020/02/26 06:03:31;;;;;;;2.6;0.8;;;;;;;2.55;91.25781;942.4956;;;;
2020/02/26 06:05:50;;;;;;;1.5;0.7;;;;;;;2.65;89.70898;942.6432;;;;
2020/02/26 06:08:15;;;;;;;2.1;0.7;;;;;;;2.51;89.53418;942.618;;;;
2020/02/26 06:10:40;;;;;;;2.8;0.9;;;;;;;2.57;90.33594;942.5843;;;;
2020/02/26 06:13:05;;;;;;;2.8;0.8;;;;;;;2.64;89.54883;942.5361;;;;
2020/02/26 06:15:31;;;;;;;3.2;0.6;;;;;;;2.57;89.2041;942.5159;;;;
2020/02/26 06:17:56;;;;;;;2.4;0.6;;;;;;;2.5;89.68848;942.5162;;;;
2020/02/26 06:20:21;;;;;;;2.8;0.8;;;;;;;2.54;89.76367;942.545;;;;
2020/02/26 06:22:46;;;;;;;2.9;1;;;;;;;2.48;90.03613;942.5996;;;;
2020/02/26 06:25:11;;;;;;;2.1;0.9;;;;;;;2.57;90.15332;942.532;;;;
2020/02/26 06:27:36;;;;;;;2.3;1;;;;;;;2.69;89.52637;942.742;;;;
2020/02/26 06:30:01;;;;;;;3.7;1.1;;;;;;;2.76;88.91797;942.6866;;;;
2020/02/26 06:32:27;;;;;;;4.1;1.1;;;;;;;2.66;90.14063;942.7076;;;;
2020/02/26 06:34:52;;;;;;;2.3;0.8;;;;;;;2.46;89.38672;942.546;;;;
2020/02/26 06:37:17;;;;;;;1.5;0.8;;;;;;;2.49;91.73242;942.6624;;;;
2020/02/26 06:39:42;;;;;;;1.9;0.8;;;;;;;2.54;91.08496;942.6375;;;;
2020/02/26 06:42:07;;;;;;;2.4;1.1;;;;;;;2.6;88.67188;942.5917;;;;
2020/02/26 06:44:32;;;;;;;2.2;0.9;;;;;;;2.73;87.83887;942.6144;;;;
2020/02/26 06:46:57;;;;;;;2.7;0.9;;;;;;;2.8;87.08301;942.6543;;;;
2020/02/26 06:49:23;;;;;;;4.2;1.1;;;;;;;2.74;87.67285;942.6797;;;;
2020/02/26 06:51:50;;;;;;;2;0.8;;;;;;;2.8;87.52441;942.6696;;;;
2020/02/26 06:54:36;;;;;;;3.2;1;;;;;;;2.77;86.79688;942.6216;;;;
2020/02/26 06:56:42;;;;;;;3.4;0.9;;;;;;;2.87;86.25195;942.543;;;;
2020/02/26 06:59:03;;;;;;;3.8;1.1;;;;;;;2.84;86.71973;942.5006;;;;
2020/02/26 07:01:28;;;;;;;2.8;0.9;;;;;;;2.92;84.9834;942.5047;;;;
2020/02/26 07:03:53;;;;;;;2.4;1;;;;;;;2.94;85.92773;942.5399;;;;
2020/02/26 07:06:19;;;;;;;3.3;1;;;;;;;2.93;85.58496;942.4131;;;;
2020/02/26 07:08:44;;;;;;;2.1;1;;;;;;;3.18;85.0918;942.4617;;;;
2020/02/26 07:11:09;;;;;;;2.9;0.9;;;;;;;3.06;84.24316;942.5028;;;;
2020/02/26 07:13:34;;;;;;;3.2;1.1;;;;;;;2.94;84.78516;942.4675;;;;
2020/02/26 07:15:59;;;;;;;2.6;1.1;;;;;;;2.98;84.3291;942.3901;;;;
2020/02/26 07:18:24;;;;;;;3.5;0.9;;;;;;;3.04;84.27344;942.4428;;;;
2020/02/26 07:20:49;;;;;;;3.1;1;;;;;;;3;84.0293;942.3705;;;;
2020/02/26 07:23:15;;;;;;;3.3;1.1;;;;;;;2.89;82.77148;942.3369;;;;
2020/02/26 07:25:40;;;;;;;3.8;1.1;;;;;;;2.94;82.52246;942.3308;;;;
2020/02/26 07:28:05;;;;;;;3.8;0.9;;;;;;;3.01;82.97754;942.3995;;;;
2020/02/26 07:30:32;;;;;;;2.5;1;;;;;;;2.97;82.8252;942.4086;;;;
2020/02/26 07:32:56;;;;;;;3;1.1;;;;;;;3.03;82.48535;942.4169;;;;
2020/02/26 07:35:21;;;;;;;4.7;1.1;;;;;;;3.09;82.59863;942.3988;;;;
2020/02/26 07:37:46;;;;;;;4;1.1;;;;;;;3.07;81.50781;942.3564;;;;
2020/02/26 07:40:11;;;;;;;4.4;0.9;;;;;;;3.14;81.19336;942.3081;;;;
2020/02/26 07:42:36;;;;;;;5.5;1.1;;;;;;;3.17;80.12402;942.4154;;;;
2020/02/26 07:45:01;;;;;;;3.4;1;;;;;;;3.15;80.29199;942.3348;;;;
2020/02/26 07:47:26;;;;;;;3;1;;;;;;;3.28;80.1123;942.2026;;;;
2020/02/26 07:49:51;;;;;;;3.8;1.3;;;;;;;3.26;80.37988;942.2436;;;;
2020/02/26 07:52:16;;;;;;;5;1.8;;;;;;;3.31;80.45801;942.2355;;;;
2020/02/26 07:54:41;;;;;;;5.2;1.5;;;;;;;3.36;79.85449;942.0883;;;;
2020/02/26 07:57:06;;;;;;;2.7;1.4;;;;;;;3.47;79.54785;942.1136;;;;
2020/02/26 07:59:31;;;;;;;3.1;1.3;;;;;;;3.45;79.67871;942.0761;;;;
2020/02/26 08:01:57;;;;;;;4.3;1.2;;;;;;;3.32;78.71582;942.072;;;;
2020/02/26 08:04:22;;;;;;;3.4;1.1;;;;;;;3.42;78.81348;942.1022;;;;
2020/02/26 08:06:47;;;;;;;3.9;1.3;;;;;;;3.49;78.65527;942.1058;;;;
2020/02/26 08:09:12;;;;;;;3.9;1.3;;;;;;;3.44;77.00684;942.134;;;;
2020/02/26 08:11:37;;;;;;;4.1;1.3;;;;;;;3.47;77.49707;942.1713;;;;
2020/02/26 08:14:02;;;;;;;4.4;1.3;;;;;;;3.61;79.19922;942.2358;;;;
2020/02/26 08:16:27;;;;;;;2.6;1.1;;;;;;;3.67;76.23242;942.2167;;;;
2020/02/26 08:18:52;;;;;;;4.9;1.1;;;;;;;3.6;77.24023;942.185;;;;
2020/02/26 08:21:18;;;;;;;4.5;1.4;;;;;;;3.57;76.88281;942.1281;;;;
2020/02/26 08:23:43;;;;;;;3.9;1.1;;;;;;;3.68;76.45996;942.1458;;;;
2020/02/26 08:26:09;;;;;;;4.8;1.3;;;;;;;3.78;75.90137;942.0945;;;;
2020/02/26 08:28:34;;;;;;;3.6;1.2;;;;;;;3.74;74.49902;941.9853;;;;
2020/02/26 08:30:59;;;;;;;3;1.2;;;;;;;3.77;75.51465;942.1476;;;;
2020/02/26 08:33:24;;;;;;;3.3;1.1;;;;;;;3.87;74.0918;941.897;;;;
2020/02/26 08:35:49;;;;;;;5.1;1.5;;;;;;;3.89;73.99414;941.8909;;;;
2020/02/26 08:38:14;;;;;;;3.2;1.1;;;;;;;3.92;72.00488;941.8568;;;;
2020/02/26 08:40:40;;;;;;;3.5;1;;;;;;;4.01;71.24902;941.8203;;;;
2020/02/26 08:43:05;;;;;;;2.9;1.1;;;;;;;4.03;72.35156;941.7358;;;;
2020/02/26 08:45:30;;;;;;;3.6;1.3;;;;;;;4.03;70.52637;941.7769;;;;
2020/02/26 08:47:55;;;;;;;6.2;1.3;;;;;;;3.99;69.31934;941.7425;;;;
2020/02/26 08:50:20;;;;;;;5.2;1.1;;;;;;;4.16;68.67773;941.7209;;;;
2020/02/26 08:52:46;;;;;;;4.3;1.2;;;;;;;4.17;68.87109;941.7942;;;;
2020/02/26 08:55:11;;;;;;;4.6;1.3;;;;;;;4.14;67.25781;941.7133;;;;
2020/02/26 08:57:36;;;;;;;5.5;1.2;;;;;;;4.26;68.19336;941.6367;;;;
2020/02/26 09:00:01;;;;;;;5.6;1.5;;;;;;;4.38;67.45313;941.7205;;;;
2020/02/26 09:02:26;;;;;;;3.8;1.2;;;;;;;4.49;67.33398;941.772;;;;
2020/02/26 09:04:51;;;;;;;3.7;1;;;;;;;4.37;67.25879;941.7777;;;;
2020/02/26 09:07:16;;;;;;;6.3;1.3;;;;;;;4.46;67.25195;941.7451;;;;
2020/02/26 09:09:41;;;;;;;4.2;1.2;;;;;;;4.47;67.03613;941.7967;;;;
2020/02/26 09:12:07;;;;;;;4.1;1.1;;;;;;;4.78;67.88086;941.8384;;;;
2020/02/26 09:14:31;;;;;;;4;1.1;;;;;;;4.71;65.81445;941.8627;;;;
2020/02/26 09:16:57;;;;;;;5.4;2.5;;;;;;;4.71;66.37109;941.8578;;;;
2020/02/26 09:19:22;;;;;;;4.4;2.5;;;;;;;4.85;66.87012;941.8854;;;;
2020/02/26 09:21:47;;;;;;;6.1;2.7;;;;;;;4.62;66.93555;941.8381;;;;
2020/02/26 09:24:12;;;;;;;7;2.2;;;;;;;4.62;66.50391;941.8736;;;;
2020/02/26 09:26:37;;;;;;;4.4;1.8;;;;;;;4.58;65.78223;941.8732;;;;
2020/02/26 09:29:02;;;;;;;3.5;1.3;;;;;;;4.63;64.97363;941.8035;;;;
2020/02/26 09:31:27;;;;;;;4;1.4;;;;;;;4.54;65.76563;941.8354;;;;
2020/02/26 09:33:52;;;;;;;5;1.5;;;;;;;4.68;65.96875;941.8817;;;;
2020/02/26 09:36:17;;;;;;;3.1;1.4;;;;;;;4.69;65.74316;941.822;;;;
2020/02/26 09:38:42;;;;;;;3.5;1.4;;;;;;;4.7;65.74512;941.89;;;;
2020/02/26 09:41:07;;;;;;;2.8;1.1;;;;;;;4.71;65.30371;941.8287;;;;
2020/02/26 09:43:32;;;;;;;3.4;1.4;;;;;;;4.8;64.86328;941.863;;;;
2020/02/26 09:45:58;;;;;;;4.9;1.7;;;;;;;4.86;65.22461;941.7684;;;;
2020/02/26 09:48:27;;;;;;;4.1;1.3;;;;;;;4.88;64.39844;941.8349;;;;
2020/02/26 09:50:48;;;;;;;3.6;1.4;;;;;;;4.76;64.41309;941.8537;;;;
2020/02/26 09:53:13;;;;;;;2.6;1.3;;;;;;;4.73;64.34082;941.838;;;;
2020/02/26 09:55:38;;;;;;;5.9;1.5;;;;;;;4.78;64.95117;941.8069;;;;
2020/02/26 09:58:04;;;;;;;5.2;1.7;;;;;;;5;63.50781;941.7766;;;;
2020/02/26 10:00:29;;;;;;;3.7;1.4;;;;;;;4.9;63.62891;941.7994;;;;
2020/02/26 10:02:54;;;;;;;4.2;1.4;;;;;;;5.11;64.25195;941.8195;;;;
2020/02/26 10:05:19;;;;;;;4.3;1.3;;;;;;;4.94;64.44043;941.7864;;;;
2020/02/26 10:07:44;;;;;;;4.3;1.1;;;;;;;5.23;63.83691;941.7957;;;;
2020/02/26 10:10:10;;;;;;;6.6;1.6;;;;;;;5.43;63.90039;941.6532;;;;
2020/02/26 10:12:35;;;;;;;4.6;1.3;;;;;;;5.62;61.55176;941.6039;;;;
2020/02/26 10:15:00;;;;;;;3.5;1.2;;;;;;;5.61;61.08398;941.6418;;;;
2020/02/26 10:17:25;;;;;;;4;1.1;;;;;;;5.64;60.49707;941.6607;;;;
2020/02/26 10:19:50;;;;;;;3.5;1.1;;;;;;;5.44;60.10449;941.5299;;;;
2020/02/26 10:22:15;;;;;;;3.5;1;;;;;;;5.66;59.80469;941.6747;;;;
2020/02/26 10:24:41;;;;;;;3;1;;;;;;;5.78;60.41406;941.6555;;;;
2020/02/26 10:27:06;;;;;;;2.9;1;;;;;;;5.71;59.6875;941.5645;;;;
2020/02/26 10:29:31;;;;;;;2.9;0.9;;;;;;;5.75;59.70215;941.5535;;;;
2020/02/26 10:31:56;;;;;;;4.3;1.1;;;;;;;5.58;59.30566;941.6085;;;;
2020/02/26 10:34:22;;;;;;;2.7;0.9;;;;;;;5.37;58.59375;941.5226;;;;
2020/02/26 10:36:47;;;;;;;2.3;1;;;;;;;5.6;59.30859;941.5433;;;;
2020/02/26 10:39:12;;;;;;;2.2;0.7;;;;;;;5.82;59.70215;941.5215;;;;
2020/02/26 10:41:38;;;;;;;3.3;1.2;;;;;;;5.5;60.30664;941.4808;;;;
2020/02/26 10:44:03;;;;;;;2.6;0.8;;;;;;;5.45;60.46973;941.6035;;;;
2020/02/26 10:46:28;;;;;;;9.7;6.3;;;;;;;5.4;61.99707;941.6093;;;;
2020/02/26 10:48:53;;;;;;;5.7;3.3;;;;;;;5.43;62.51367;941.6541;;;;
2020/02/26 10:51:19;;;;;;;6.3;3.5;;;;;;;5.33;62.76074;941.7089;;;;
2020/02/26 10:53:44;;;;;;;3.8;1.4;;;;;;;5.26;62.72656;941.7209;;;;
2020/02/26 10:56:09;;;;;;;3.7;1.7;;;;;;;5.3;62.64258;941.715;;;;
2020/02/26 10:58:34;;;;;;;3.5;1.1;;;;;;;5.3;63.33594;941.6472;;;;
2020/02/26 11:01:00;;;;;;;3.6;1.3;;;;;;;5.67;61.48926;941.5923;;;;
2020/02/26 11:03:25;;;;;;;4.1;1.6;;;;;;;5.34;61.92188;941.6031;;;;
2020/02/26 11:05:50;;;;;;;5.3;1.7;;;;;;;5.54;61.52832;941.551;;;;
2020/02/26 11:08:15;;;;;;;4.7;1.2;;;;;;;5.81;61.44238;941.5862;;;;
2020/02/26 11:10:41;;;;;;;3.8;1.1;;;;;;;5.94;60.32324;941.6795;;;;
2020/02/26 11:13:06;;;;;;;2.8;1.2;;;;;;;5.88;60.05176;941.5349;;;;
2020/02/26 11:15:31;;;;;;;4.2;1.4;;;;;;;6.33;59.80762;941.5801;;;;
2020/02/26 11:17:57;;;;;;;2.9;1.1;;;;;;;6.49;58.25684;941.5222;;;;
2020/02/26 11:20:22;;;;;;;2.6;1;;;;;;;6.23;58.0625;941.6436;;;;
2020/02/26 11:22:47;;;;;;;3.4;1.2;;;;;;;6.09;58.57813;941.5424;;;;
2020/02/26 11:25:12;;;;;;;3.4;1.2;;;;;;;6.27;58.08984;941.4416;;;;
2020/02/26 11:27:38;;;;;;;3.9;1.4;;;;;;;5.97;58.10645;941.6401;;;;
2020/02/26 11:30:03;;;;;;;3.2;1.3;;;;;;;6.38;57.91211;941.782;;;;
2020/02/26 11:32:28;;;;;;;3.5;1.2;;;;;;;6.34;57.54102;941.7907;;;;
2020/02/26 11:34:53;;;;;;;4.3;1.1;;;;;;;6.4;57.6748;941.7433;;;;
2020/02/26 11:37:19;;;;;;;3.1;0.9;;;;;;;6.17;59.375;941.8873;;;;
2020/02/26 11:39:43;;;;;;;2.6;0.9;;;;;;;6.54;58.68652;941.8159;;;;
2020/02/26 11:42:08;;;;;;;3;1.1;;;;;;;6.2;58.77637;941.9498;;;;
2020/02/26 11:44:34;;;;;;;3.5;1.1;;;;;;;5.91;59.79492;942.008;;;;
2020/02/26 11:46:59;;;;;;;2.8;0.9;;;;;;;5.83;60.6709;942.0258;;;;
2020/02/26 11:49:24;;;;;;;2.4;0.8;;;;;;;5.72;61.62207;941.9216;;;;
2020/02/26 11:51:49;;;;;;;2.8;0.7;;;;;;;5.81;62.31738;941.9774;;;;
2020/02/26 11:54:15;;;;;;;1.5;0.7;;;;;;;6.07;62.48242;942.0506;;;;
2020/02/26 11:56:40;;;;;;;2.3;1;;;;;;;5.94;62.57813;942.1378;;;;
2020/02/26 11:59:05;;;;;;;2.1;0.9;;;;;;;5.69;64.94043;942.1678;;;;
2020/02/26 12:01:31;;;;;;;2.8;0.7;;;;;;;5.48;65.86523;942.1707;;;;
2020/02/26 12:03:56;;;;;;;1.6;0.6;;;;;;;4.99;66.29004;942.4001;;;;
2020/02/26 12:06:21;;;;;;;1.9;0.7;;;;;;;4.93;67.58691;942.5478;;;;
2020/02/26 12:09:11;;;;;;;2.3;0.7;;;;;;;4.22;75.25391;942.6334;;;;
2020/02/26 12:11:11;;;;;;;4;0.9;;;;;;;3.75;78.89746;942.6425;;;;
2020/02/26 12:13:36;;;;;;;1.9;0.6;;;;;;;4.12;80.25977;942.684;;;;
2020/02/26 12:16:02;;;;;;;3;0.7;;;;;;;4.2;81.33887;942.8272;;;;
2020/02/26 12:18:27;;;;;;;1.9;0.8;;;;;;;4.13;83.74023;942.7786;;;;
2020/02/26 12:20:52;;;;;;;1.9;1;;;;;;;4.23;84.47559;942.8245;;;;
2020/02/26 12:23:17;;;;;;;1.2;0.6;;;;;;;3.99;84.92676;942.753;;;;
2020/02/26 12:25:42;;;;;;;1.7;0.9;;;;;;;4.08;85.04492;942.7358;;;;
2020/02/26 12:28:07;;;;;;;2.1;0.8;;;;;;;3.94;85.27832;942.7552;;;;
2020/02/26 12:30:32;;;;;;;2.1;0.9;;;;;;;4.03;84.82031;942.7647;;;;
2020/02/26 12:32:58;;;;;;;2.4;0.8;;;;;;;4.05;84.59766;942.7369;;;;
2020/02/26 12:35:23;;;;;;;2.2;1;;;;;;;3.9;84.99902;942.8409;;;;
2020/02/26 12:37:48;;;;;;;2.2;1;;;;;;;3.48;88.04004;942.9252;;;;
2020/02/26 12:40:13;;;;;;;1.8;1.2;;;;;;;3.91;87.60742;942.9142;;;;
2020/02/26 12:42:39;;;;;;;1.8;1;;;;;;;3.98;86.88574;942.8423;;;;
2020/02/26 12:45:04;;;;;;;0.8;0.7;;;;;;;4.27;86.53613;942.8999;;;;
2020/02/26 12:47:29;;;;;;;4.2;0.9;;;;;;;3.4;85.0127;943.2924;;;;
2020/02/26 12:49:54;;;;;;;3.3;0.9;;;;;;;2.89;86.36816;943.4694;;;;
2020/02/26 12:52:19;;;;;;;2.3;0.8;;;;;;;2.73;84.58398;943.5801;;;;
2020/02/26 12:54:44;;;;;;;1.8;0.8;;;;;;;2.69;82.9043;943.6241;;;;
2020/02/26 12:57:10;;;;;;;2.7;0.7;;;;;;;2.47;83.69629;943.6392;;;;
2020/02/26 12:59:35;;;;;;;2;0.4;;;;;;;2.6;82.55762;943.606;;;;
2020/02/26 13:02:00;;;;;;;1.3;0.5;;;;;;;2.36;84.43164;943.7216;;;;
2020/02/26 13:04:25;;;;;;;2.2;0.7;;;;;;;2.43;84.77344;943.7484;;;;
2020/02/26 13:06:50;;;;;;;1.7;0.6;;;;;;;2.43;83.87988;943.795;;;;
2020/02/26 13:09:16;;;;;;;0.7;0.5;;;;;;;2.37;82.94531;943.813;;;;
2020/02/26 13:11:41;;;;;;;1.2;0.6;;;;;;;2.59;83.5498;943.8638;;;;
2020/02/26 13:14:06;;;;;;;1.5;0.6;;;;;;;2.35;84.66699;943.904;;;;
2020/02/26 13:16:31;;;;;;;1.7;0.6;;;;;;;2.59;82.03613;943.9395;;;;
2020/02/26 13:18:56;;;;;;;2.6;0.8;;;;;;;2.73;81.12598;943.9645;;;;
2020/02/26 13:21:21;;;;;;;1;0.5;;;;;;;2.84;81.88281;944.116;;;;
2020/02/26 13:23:46;;;;;;;1.8;0.9;;;;;;;2.93;80.74512;944.1987;;;;
2020/02/26 13:26:11;;;;;;;2.6;1.6;;;;;;;2.99;80.55371;944.4322;;;;
2020/02/26 13:28:36;;;;;;;2;1.2;;;;;;;3.19;81.40625;944.3809;;;;
2020/02/26 13:31:35;;;;;;;2.4;0.9;;;;;;;3.18;80.64648;944.4163;;;;
2020/02/26 13:34:00;;;;;;;1.2;0.6;;;;;;;3.38;80.28906;944.5576;;;;
2020/02/26 13:36:25;;;;;;;1.4;0.7;;;;;;;3.19;79.65234;944.5644;;;;
2020/02/26 13:38:50;;;;;;;1.1;0.7;;;;;;;3.08;79.80176;944.6145;;;;
2020/02/26 13:41:15;;;;;;;1.6;0.7;;;;;;;3.23;81.26563;944.5201;;;;
2020/02/26 13:43:40;;;;;;;4.8;2.7;;;;;;;3.17;79.79785;944.5272;;;;
2020/02/26 13:46:05;;;;;;;1.4;0.8;;;;;;;3.38;79.87012;944.585;;;;
2020/02/26 13:48:30;;;;;;;2.1;1.4;;;;;;;3.59;79.20703;944.6744;;;;
2020/02/26 13:50:55;;;;;;;1.9;1.1;;;;;;;3.27;79.67871;944.6814;;;;
2020/02/26 13:53:21;;;;;;;2.1;1;;;;;;;3.25;78.83789;944.7968;;;;
2020/02/26 13:55:46;;;;;;;3.5;2;;;;;;;3.47;78.82324;944.7886;;;;
2020/02/26 13:58:11;;;;;;;4.8;2.9;;;;;;;3.75;77.94531;944.8181;;;;
2020/02/26 14:00:36;;;;;;;5.1;3.3;;;;;;;3.86;79.12305;944.8945;;;;
2020/02/26 14:03:01;;;;;;;5.5;3.2;;;;;;;3.73;76.4248;944.882;;;;
2020/02/26 14:05:26;;;;;;;5.8;2.9;;;;;;;3.73;75.08789;945.0568;;;;
2020/02/26 14:07:51;;;;;;;2.5;1.3;;;;;;;3.74;75.59766;944.9788;;;;
2020/02/26 14:10:16;;;;;;;2.8;1.8;;;;;;;3.77;74.5752;945.0949;;;;
2020/02/26 14:12:41;;;;;;;1.8;1.1;;;;;;;4.21;73.83203;945.1108;;;;
2020/02/26 14:15:06;;;;;;;1.9;1;;;;;;;4.35;70.09277;945.0813;;;;
2020/02/26 14:17:31;;;;;;;1.6;0.9;;;;;;;4.32;67.80762;945.0994;;;;
2020/02/26 14:19:56;;;;;;;3.1;0.6;;;;;;;4.29;67.34863;945.0165;;;;
2020/02/26 14:22:22;;;;;;;1.9;0.7;;;;;;;4.3;65.23047;945.1247;;;;
2020/02/26 14:24:47;;;;;;;2.2;0.6;;;;;;;4.3;66.55566;945.1351;;;;
2020/02/26 14:27:12;;;;;;;2.5;0.7;;;;;;;4.43;66.26953;945.173;;;;
2020/02/26 14:29:37;;;;;;;0.9;0.5;;;;;;;4.52;64.10547;945.1846;;;;
2020/02/26 14:32:02;;;;;;;2.2;0.6;;;;;;;4.41;63.54492;945.2583;;;;
2020/02/26 14:34:27;;;;;;;2;0.5;;;;;;;4.59;64.15039;945.298;;;;
2020/02/26 14:36:52;;;;;;;1.6;0.7;;;;;;;4.44;64.94434;945.2725;;;;